Woodhull, New York
Current Conditions -  °F | °C
As of 4:35 AM on Thursday 27 Nov 2014 (Local Time) from KN38 Reporting Station
Light Rain Light Rain  
Wind Chill: 20°   Ceiling: 1100
Heat Index: 27°   Visibility: 5mi
Dew Point: 25°   Wind: 6mph
Humidity: 93%   Direction: 350°N
Pressure: 29.95"   Gusts: NA
Location:  42.08°N, 77.4°W
Report Text: KN38 270935Z AUTO 35005KT 5SM -RA OVC011 M03/M04 A2995 RMK AO2
Loading
Personal Weather Stations






























Interactive Weather Map New forecast layout! Learn more

10-Day Weather Forecast

Advertisements
Track Severe Weather on mobile